Flight Track Log - Related Links

Times and Time Zones

All times are in EDT time to prevent confusion due to time zone crossing. See the FLG3776 flight status page for this flight to view local times or setup timezone preferences in your user account.

Time Position Orientation Groundspeed Altitude Reporting Facility
EDT Latitude Longitude Course Direction KTS MPH feet Rate Location/Type
Thu 08:55:10 PM 44.9167 -93.2500 69° East 169 194 2,700  Level Minneapolis TRACON
Thu 08:55:44 PM 44.9447 -93.2422 11° North 188 216 3,200 1,688 Climbing Minneapolis Center
Thu 08:56:46 PM 45.0058 -93.2331 North 218 251 5,400 2,592 Climbing Minneapolis Center
Thu 08:57:00 PM 44.9994 -92.7482 69° East  Level FlightAware Approximate
Thu 08:57:49 PM 45.0947 -93.2100 10° North 276 318 8,600  Level Minneapolis Center
Thu 08:58:00 PM 45.0448 -92.5920 66° East  Level FlightAware Approximate
Thu 08:58:51 PM 45.1289 -93.1003 66° East 316 364 10,800  Level Minneapolis Center
Thu 08:59:00 PM 45.0931 -92.4374 65° Northeast  Level FlightAware Approximate
Thu 08:59:53 PM 45.1567 -92.9731 73° East 335 386 12,700  Level Minneapolis Center
Thu 09:00:00 PM 45.1283 -92.2777 69° East  Level FlightAware Approximate
Thu 09:00:57 PM 45.1864 -92.8356 73° East 366 421 14,300  Level Minneapolis Center
Thu 09:01:59 PM 45.2178 -92.6894 73° East 385 443 15,700 1,403 Climbing Minneapolis Center
Thu 09:03:01 PM 45.2506 -92.5408 73° East 394 453 17,200 1,500 Climbing Minneapolis Center
Thu 09:04:03 PM 45.2881 -92.3594 74° East 398 458 18,800 1,452 Climbing Minneapolis Center
Thu 09:05:05 PM 45.2875 -92.1975 90° East 424 488 20,200 1,306 Climbing Minneapolis Center
Thu 09:06:07 PM 45.2617 -92.0372 103° East 417 480 21,500 1,258 Climbing Minneapolis Center
Thu 09:07:09 PM 45.2350 -91.8756 103° East 420 483 22,800 726 Climbing Minneapolis Center
Thu 09:08:11 PM 45.2078 -91.7111 103° East 426 490 23,000 97 Climbing Minneapolis Center
Thu 09:09:13 PM 45.1775 -91.5342 104° East 451 519 23,000  Level Minneapolis Center
Thu 09:10:15 PM 45.1389 -91.3153 104° East 472 543 23,000  Level Minneapolis Center
Thu 09:11:17 PM 45.1086 -91.1331 103° East 476 548 23,000  Level Minneapolis Center
Thu 09:12:19 PM 45.0764 -90.9517 104° East 476 548 23,000  Level Minneapolis Center
Thu 09:13:21 PM 45.0431 -90.7583 104° East 472 543 23,000  Level Minneapolis Center
Thu 09:14:24 PM 45.0108 -90.5800 104° East 472 543 23,000  Level Minneapolis Center
Thu 09:15:26 PM 44.9697 -90.4086 109° East 468 539 23,000  Level Minneapolis Center
Thu 09:16:28 PM 44.8931 -90.2661 127° Southeast 458 527 23,000  Level Minneapolis Center
Thu 09:17:30 PM 44.8131 -90.1164 127° Southeast 456 525 23,000  Level Minneapolis Center
Thu 09:18:32 PM 44.7403 -89.9706 125° Southeast 457 526 23,000  Level Minneapolis Center
Thu 09:19:34 PM 44.7175 -89.7581 99° East 466 536 23,000  Level Minneapolis Center
Thu 09:20:36 PM 44.6992 -89.5767 98° East 467 537 23,000 145 Level Minneapolis Center
Thu 09:21:38 PM 44.6814 -89.3953 98° East 469 540 23,300 677 Climbing Minneapolis Center
Thu 09:22:40 PM 44.6631 -89.2150 98° East 465 535 24,400 1,016 Climbing Minneapolis Center
Thu 09:23:42 PM 44.6453 -89.0381 98° East 460 529 25,400 919 Climbing Minneapolis Center
Thu 09:24:44 PM 44.6267 -88.8603 98° East 459 528 26,300 726 Climbing Minneapolis Center
Thu 09:25:46 PM 44.5950 -88.6525 102° East 465 535 26,900 339 Climbing Minneapolis Center
Thu 09:26:48 PM 44.5464 -88.4800 112° Southeast 472 543 27,000 97 Climbing Minneapolis Center
Thu 09:27:50 PM 44.4953 -88.3031 112° Southeast 486 559 27,100  Climbing Minneapolis Center
Thu 09:29:05 PM 44.4261 -88.1075 116° Southeast 481 554 27,000 -44 Descending Minneapolis Center
Thu 09:30:07 PM 44.3489 -87.9247 121° Southeast 468 539 27,000  Level Minneapolis Center
Thu 09:31:09 PM 44.2756 -87.8156 133° Southeast 458 527 27,000  Level Minneapolis Center
Thu 09:32:11 PM 44.1525 -87.6950 145° Southeast 460 529 27,000  Level Minneapolis Center
Thu 09:32:44 PM 44.1003 -87.6436 145° Southeast 460 529 27,000  Level Chicago Center
Thu 09:33:46 PM 43.9944 -87.5414 145° Southeast 460 529 27,000  Level Chicago Center
Thu 09:34:48 PM 43.8881 -87.4383 145° Southeast 463 533 27,000  Level Chicago Center
Thu 09:35:50 PM 43.7714 -87.3258 145° Southeast 466 536 27,000  Level Chicago Center
Thu 09:36:51 PM 43.6644 -87.2231 145° Southeast 467 537 27,000  Level Chicago Center
Thu 09:37:53 PM 43.5558 -87.1197 145° Southeast 474 545 27,000  Level Chicago Center
Thu 09:38:55 PM 43.4469 -87.0167 145° Southeast 476 548 27,000  Level Chicago Center
Thu 09:39:57 PM 43.3153 -86.8911 145° Southeast 482 555 27,000 -387 Level Chicago Center
Thu 09:40:59 PM 43.2050 -86.7883 146° Southeast 482 555 26,200 -1,073 Descending Chicago Center
Thu 09:42:00 PM 43.1019 -86.6931 146° Southeast 455 524 24,800 -1,463 Descending Chicago Center
Thu 09:43:02 PM 43.0011 -86.6008 146° Southeast 442 509 23,200 -1,790 Descending Chicago Center
Thu 09:44:04 PM 42.9042 -86.5100 146° Southeast 429 494 21,100 -1,951 Descending Chicago Center
Thu 09:45:05 PM 42.8128 -86.4247 146° Southeast 408 470 19,200 -2,049 Descending Chicago Center
Thu 09:46:07 PM 42.7078 -86.3275 146° Southeast 387 445 16,900 -2,032 Descending Chicago Center
Thu 09:47:09 PM 42.6228 -86.2500 146° Southeast 375 432 15,000 -1,790 Descending Chicago Center
Thu 09:48:11 PM 42.5414 -86.1756 146° Southeast 360 414 13,200 -1,659 Descending Chicago Center
Thu 09:49:12 PM 42.4633 -86.0981 144° Southeast 352 405 11,600 -1,512 Descending Chicago Center
Thu 09:50:14 PM 42.4172 -85.9908 120° Southeast 331 381 10,100 -1,805 Descending Chicago Center
Thu 09:51:15 PM 42.3789 -85.8956 119° Southeast 298 343 7,900 -2,585 Descending Chicago Center
Thu 09:52:17 PM 42.3447 -85.7750 111° Southeast 290 334 4,800 -3,000 Descending Chicago Center

Login

Don't have an account? Register now (free) for customized features, flight alerts, and more!